Time;durP1;ratioP1;P1;durP2;ratioP2;P2;SDS_P1;SDS_P2;PMS_P1;PMS_P2;Temp;Humidity;BMP_temperature;BMP_pressure;BME280_temperature;BME280_humidity;BME280_pressure;Samples;Min_cycle;Max_cycle;Signal;HPM_P1;HPM_P2
2023/03/06 00:02:22;;;;;;;37.83;23.10;;;7.20;90.30;;;;;;4942698;29;20626;-79
2023/03/06 00:04:49;;;;;;;42.03;24.13;;;7.20;90.30;;;;;;4939007;29;20222;-78
2023/03/06 00:07:16;;;;;;;34.57;23.23;;;7.20;90.40;;;;;;4933604;29;20214;-79
2023/03/06 00:09:43;;;;;;;37.20;23.47;;;7.20;90.20;;;;;;4932777;29;20658;-79
2023/03/06 00:12:11;;;;;;;42.00;25.30;;;7.20;90.10;;;;;;4932365;29;20207;-79
2023/03/06 00:14:38;;;;;;;44.00;25.33;;;7.20;90.10;;;;;;4938932;29;20218;-80
2023/03/06 00:17:05;;;;;;;34.73;22.00;;;7.20;90.20;;;;;;4944131;29;20215;-80
2023/03/06 00:19:32;;;;;;;40.27;25.00;;;7.10;90.30;;;;;;4936495;29;20219;-79
2023/03/06 00:21:59;;;;;;;43.67;25.60;;;7.10;90.30;;;;;;4945613;29;20554;-79
2023/03/06 00:24:26;;;;;;;37.07;24.03;;;7.10;90.50;;;;;;4928531;29;20239;-79
2023/03/06 00:26:54;;;;;;;40.23;24.07;;;7.10;90.50;;;;;;4939555;29;20588;-79
2023/03/06 00:29:21;;;;;;;50.77;28.43;;;7.10;90.50;;;;;;4938422;29;20215;-79
2023/03/06 00:31:50;;;;;;;39.07;23.47;;;7.10;90.60;;;;;;4938620;29;20221;-79
2023/03/06 00:34:17;;;;;;;39.03;24.23;;;7.10;90.60;;;;;;4932875;29;20222;-79
2023/03/06 00:36:46;;;;;;;41.40;27.07;;;7.10;90.60;;;;;;4935093;29;20565;-79
2023/03/06 00:39:13;;;;;;;39.77;25.70;;;7.10;90.60;;;;;;4944420;29;20246;-79
2023/03/06 00:41:40;;;;;;;36.83;24.07;;;7.10;90.60;;;;;;4938293;29;20226;-79
2023/03/06 00:44:13;;;;;;;39.20;23.67;;;7.10;90.80;;;;;;4937885;29;20218;-79
2023/03/06 00:46:41;;;;;;;38.73;24.20;;;7.10;90.70;;;;;;4936258;29;20211;-79
2023/03/06 00:49:11;;;;;;;35.30;21.70;;;7.10;90.50;;;;;;4937728;29;20218;-79
2023/03/06 00:51:41;;;;;;;35.53;23.03;;;7.10;90.50;;;;;;4919752;29;20270;-79
2023/03/06 00:54:09;;;;;;;35.83;21.47;;;7.10;90.60;;;;;;4940375;29;20206;-79
2023/03/06 00:56:36;;;;;;;40.33;23.03;;;7.10;90.40;;;;;;4926975;29;20220;-79
2023/03/06 00:59:03;;;;;;;29.47;20.50;;;7.10;90.70;;;;;;4936985;29;20248;-79
2023/03/06 01:01:30;;;;;;;33.33;20.33;;;7.00;90.40;;;;;;4932280;29;20660;-78
2023/03/06 01:04:00;;;;;;;37.47;22.77;;;6.90;90.60;;;;;;4949521;29;20216;-79
2023/03/06 01:06:28;;;;;;;33.43;22.23;;;6.80;89.80;;;;;;4936245;29;20207;-79
2023/03/06 01:08:55;;;;;;;42.37;23.97;;;6.80;89.50;;;;;;4919961;29;20195;-79
2023/03/06 01:11:24;;;;;;;36.47;22.17;;;6.70;89.40;;;;;;4936993;29;20302;-79
2023/03/06 01:13:52;;;;;;;37.47;22.73;;;6.60;89.40;;;;;;4936700;29;20210;-79
2023/03/06 01:16:20;;;;;;;31.27;21.80;;;6.50;89.50;;;;;;4948773;29;20210;-79
2023/03/06 01:18:48;;;;;;;31.30;20.10;;;6.50;90.00;;;;;;4923450;29;20209;-79
2023/03/06 01:21:15;;;;;;;32.67;19.80;;;6.40;90.10;;;;;;4944076;29;20210;-78
2023/03/06 01:23:42;;;;;;;37.90;23.37;;;6.40;90.10;;;;;;4933960;29;20238;-79
2023/03/06 01:26:09;;;;;;;37.97;22.10;;;6.30;90.10;;;;;;4933429;29;20199;-79
2023/03/06 01:28:38;;;;;;;34.70;21.60;;;6.30;90.10;;;;;;4935348;29;20519;-79
2023/03/06 01:31:06;;;;;;;32.53;19.97;;;6.20;90.20;;;;;;4936615;29;20204;-78
2023/03/06 01:33:35;;;;;;;43.23;24.17;;;6.20;90.30;;;;;;4939010;29;20207;-79
2023/03/06 01:36:10;;;;;;;38.63;22.20;;;6.20;90.40;;;;;;4935443;29;20213;-78
2023/03/06 01:38:37;;;;;;;32.90;20.63;;;6.10;90.50;;;;;;4939188;29;20238;-78
2023/03/06 01:41:05;;;;;;;32.77;21.43;;;6.10;90.60;;;;;;4914593;29;20640;-78
2023/03/06 01:43:35;;;;;;;33.10;18.47;;;6.20;90.60;;;;;;4934726;29;20680;-79
2023/03/06 01:46:21;;;;;;;33.87;20.70;;;6.10;90.60;;;;;;4934739;29;20230;-79
2023/03/06 01:48:53;;;;;;;30.10;18.30;;;6.10;90.30;;;;;;4931679;29;20712;-79
2023/03/06 01:51:24;;;;;;;24.83;16.50;;;6.00;90.20;;;;;;4903097;29;20202;-79
2023/03/06 01:53:52;;;;;;;38.23;20.80;;;6.00;89.80;;;;;;4936360;29;20221;-78
2023/03/06 01:56:19;;;;;;;41.07;22.90;;;5.90;89.30;;;;;;4927387;29;20208;-79
2023/03/06 01:58:48;;;;;;;30.20;19.00;;;5.80;89.80;;;;;;4936312;29;20198;-79
2023/03/06 02:01:16;;;;;;;33.43;19.03;;;5.80;90.10;;;;;;4923032;29;20206;-79
2023/03/06 02:03:48;;;;;;;35.87;22.37;;;5.80;90.20;;;;;;4918941;29;20291;-79
2023/03/06 02:06:20;;;;;;;33.43;20.37;;;5.80;90.30;;;;;;4938421;29;20214;-79
2023/03/06 02:08:50;;;;;;;30.73;19.37;;;5.80;90.50;;;;;;4935940;29;20195;-79
2023/03/06 02:11:23;;;;;;;28.47;17.20;;;5.70;90.50;;;;;;4933704;28;20290;-79
2023/03/06 02:13:53;;;;;;;25.40;16.70;;;5.70;90.60;;;;;;4937269;29;20200;-79
2023/03/06 02:16:24;;;;;;;29.90;17.67;;;5.70;90.50;;;;;;4933280;29;20610;-79
2023/03/06 02:18:52;;;;;;;32.00;20.37;;;5.70;90.30;;;;;;4936516;29;20303;-79
2023/03/06 02:21:25;;;;;;;29.40;18.70;;;5.60;90.30;;;;;;4940601;29;20289;-78
2023/03/06 02:24:25;;;;;;;24.23;15.43;;;5.60;90.30;;;;;;4935230;29;20329;-79
2023/03/06 02:26:54;;;;;;;27.93;17.00;;;5.60;90.40;;;;;;4912749;29;20215;-78
2023/03/06 02:29:25;;;;;;;26.93;17.40;;;5.50;90.10;;;;;;4928758;29;20210;-79
2023/03/06 02:31:55;;;;;;;31.10;19.83;;;5.40;89.40;;;;;;4930461;29;20622;-79
2023/03/06 02:34:24;;;;;;;28.27;17.23;;;5.30;90.00;;;;;;4933495;29;20207;-79
2023/03/06 02:37:00;;;;;;;28.33;17.77;;;5.30;90.40;;;;;;4931683;29;20215;-78
2023/03/06 02:39:30;;;;;;;35.20;21.07;;;5.30;90.70;;;;;;4915173;29;20219;-79
2023/03/06 02:41:58;;;;;;;34.57;20.90;;;5.30;90.80;;;;;;4923567;29;20282;-78
2023/03/06 02:44:31;;;;;;;27.50;17.63;;;5.30;90.90;;;;;;4925346;29;20214;-78
2023/03/06 02:46:59;;;;;;;28.27;17.20;;;5.40;91.10;;;;;;4924306;29;20209;-79
2023/03/06 02:49:26;;;;;;;28.83;19.23;;;5.40;91.20;;;;;;4930195;29;20270;-79
2023/03/06 02:51:54;;;;;;;35.37;21.03;;;5.40;91.20;;;;;;4933433;29;20249;-79
2023/03/06 02:54:22;;;;;;;34.33;21.63;;;5.40;91.20;;;;;;4934999;29;20210;-79
2023/03/06 02:56:49;;;;;;;38.43;24.63;;;5.40;91.20;;;;;;4931262;29;20204;-79
2023/03/06 02:59:16;;;;;;;40.77;22.83;;;5.40;91.20;;;;;;4936439;29;20203;-79
2023/03/06 03:01:47;;;;;;;35.63;22.93;;;5.40;91.30;;;;;;4921894;29;20225;-79
2023/03/06 03:04:14;;;;;;;34.80;21.60;;;5.40;91.40;;;;;;4928192;29;20653;-79
2023/03/06 03:06:44;;;;;;;31.97;19.93;;;5.40;91.50;;;;;;4922207;29;20262;-79
2023/03/06 03:09:13;;;;;;;32.53;18.90;;;5.40;91.60;;;;;;4931677;28;20213;-79
2023/03/06 03:11:40;;;;;;;37.43;22.60;;;5.40;91.60;;;;;;4947613;29;20209;-78
2023/03/06 03:14:07;;;;;;;33.07;20.30;;;5.40;91.40;;;;;;4935290;29;20207;-79
2023/03/06 03:16:35;;;;;;;30.30;20.93;;;5.40;91.40;;;;;;4922487;29;20197;-79
2023/03/06 03:19:05;;;;;;;33.90;19.87;;;5.30;91.40;;;;;;4929166;29;20203;-79
2023/03/06 03:21:32;;;;;;;32.30;18.47;;;5.30;91.30;;;;;;4935646;29;20202;-79
2023/03/06 03:23:59;;;;;;;35.23;20.80;;;5.20;91.20;;;;;;4895237;29;1241230;-79
2023/03/06 03:26:28;;;;;;;32.47;19.83;;;5.20;91.20;;;;;;4939919;29;20210;-79
2023/03/06 03:29:03;;;;;;;33.83;19.10;;;5.20;91.40;;;;;;4933971;29;20210;-80
2023/03/06 03:31:40;;;;;;;32.83;19.93;;;5.20;91.40;;;;;;4943817;29;20207;-79
2023/03/06 03:34:09;;;;;;;36.10;22.13;;;5.10;91.30;;;;;;4926343;29;20209;-79
2023/03/06 03:36:39;;;;;;;33.73;22.00;;;5.10;91.20;;;;;;4936006;29;20210;-79
2023/03/06 03:39:10;;;;;;;35.77;21.33;;;5.10;91.40;;;;;;4929494;29;20213;-79
2023/03/06 03:41:37;;;;;;;29.57;19.83;;;5.10;91.50;;;;;;4925914;29;20210;-79
2023/03/06 03:44:07;;;;;;;34.47;22.27;;;5.10;91.70;;;;;;4940924;29;20281;-79
2023/03/06 03:46:35;;;;;;;41.10;23.90;;;5.10;91.80;;;;;;4925653;29;20214;-79
2023/03/06 03:49:04;;;;;;;34.30;21.40;;;5.20;92.20;;;;;;4937247;29;20207;-79
2023/03/06 03:51:33;;;;;;;40.03;21.97;;;5.20;92.20;;;;;;4938584;29;20547;-79
2023/03/06 03:54:01;;;;;;;38.60;22.63;;;5.20;92.00;;;;;;4948333;29;20551;-78
2023/03/06 03:56:34;;;;;;;31.10;20.67;;;5.20;92.10;;;;;;4935998;29;20653;-79
2023/03/06 03:59:08;;;;;;;34.93;21.73;;;5.20;92.20;;;;;;4930260;29;20555;-79
2023/03/06 04:01:43;;;;;;;36.27;21.73;;;5.10;92.10;;;;;;4926010;29;20210;-79
2023/03/06 04:04:11;;;;;;;29.00;19.07;;;5.10;92.10;;;;;;4939753;29;20598;-79
2023/03/06 04:06:39;;;;;;;39.17;20.70;;;5.10;92.30;;;;;;4919921;29;20297;-78
2023/03/06 04:09:07;;;;;;;30.83;18.07;;;5.10;92.30;;;;;;4921457;29;20206;-79
2023/03/06 04:11:35;;;;;;;26.40;17.17;;;5.10;92.30;;;;;;4931373;29;20249;-78
2023/03/06 04:14:03;;;;;;;28.30;15.57;;;5.00;92.10;;;;;;4939696;29;20218;-79
2023/03/06 04:16:31;;;;;;;24.23;15.27;;;5.00;91.90;;;;;;4938962;29;20215;-79
2023/03/06 04:18:57;;;;;;;26.83;16.70;;;5.00;91.80;;;;;;4942946;29;20551;-79
2023/03/06 04:21:25;;;;;;;29.17;16.07;;;4.90;91.60;;;;;;4938967;29;20215;-79
2023/03/06 04:23:52;;;;;;;26.47;16.23;;;4.90;91.50;;;;;;4935627;29;20236;-79
2023/03/06 04:26:20;;;;;;;25.50;17.07;;;4.90;91.60;;;;;;4931805;29;20218;-79
2023/03/06 04:28:47;;;;;;;29.97;18.10;;;4.80;91.60;;;;;;4932334;29;20204;-79
2023/03/06 04:31:15;;;;;;;28.77;17.13;;;4.80;91.80;;;;;;4919624;29;20255;-79
2023/03/06 04:33:42;;;;;;;26.30;18.13;;;4.90;91.90;;;;;;4940541;29;20297;-79
2023/03/06 04:36:29;;;;;;;24.30;16.47;;;4.80;91.80;;;;;;4935095;29;20214;-79
2023/03/06 04:39:00;;;;;;;33.53;19.33;;;4.80;91.80;;;;;;4931505;29;20226;-79
2023/03/06 04:41:27;;;;;;;35.60;17.07;;;4.80;91.80;;;;;;4943997;29;20230;-79
2023/03/06 04:43:54;;;;;;;29.17;17.70;;;4.80;92.00;;;;;;4926588;29;20208;-79
2023/03/06 04:46:22;;;;;;;30.47;16.97;;;4.80;92.10;;;;;;4920874;29;20208;-79
2023/03/06 04:48:49;;;;;;;33.37;18.20;;;4.80;92.20;;;;;;4920594;29;20756;-79
2023/03/06 04:51:17;;;;;;;35.27;21.70;;;4.80;92.20;;;;;;4918525;29;20242;-80
2023/03/06 04:53:44;;;;;;;32.90;19.70;;;4.80;92.20;;;;;;4938297;29;20302;-79
2023/03/06 04:56:12;;;;;;;37.53;20.03;;;4.80;92.40;;;;;;4936287;29;20657;-79
2023/03/06 04:58:40;;;;;;;28.37;18.23;;;4.80;92.40;;;;;;4915995;29;20207;-78
2023/03/06 05:01:07;;;;;;;33.23;19.77;;;4.80;92.50;;;;;;4926215;29;20237;-79
2023/03/06 05:03:34;;;;;;;35.07;20.57;;;4.80;92.60;;;;;;4930183;29;20673;-78
2023/03/06 05:06:01;;;;;;;35.63;21.43;;;4.80;92.70;;;;;;4931835;29;20210;-79
2023/03/06 05:08:29;;;;;;;34.97;19.63;;;4.80;92.80;;;;;;4922126;29;20291;-78
2023/03/06 05:10:58;;;;;;;35.67;19.67;;;4.90;92.90;;;;;;4935698;29;20222;-79
2023/03/06 05:13:26;;;;;;;29.57;18.60;;;4.90;93.00;;;;;;4934547;29;20223;-79
2023/03/06 05:15:54;;;;;;;31.17;20.97;;;4.90;92.90;;;;;;4924385;29;20207;-79
2023/03/06 05:18:21;;;;;;;30.27;20.07;;;5.00;92.90;;;;;;4918547;29;20210;-79
2023/03/06 05:20:49;;;;;;;32.13;18.80;;;5.10;92.90;;;;;;4921087;29;20282;-79
2023/03/06 05:23:16;;;;;;;28.23;18.23;;;5.10;92.90;;;;;;4946123;29;20272;-79
2023/03/06 05:25:43;;;;;;;32.20;18.07;;;5.20;92.90;;;;;;4927993;29;20202;-79
2023/03/06 05:28:10;;;;;;;31.67;20.03;;;5.20;92.90;;;;;;4936654;29;20208;-78
2023/03/06 05:30:37;;;;;;;31.77;19.40;;;5.20;92.80;;;;;;4919192;29;20203;-79
2023/03/06 05:33:04;;;;;;;37.80;21.17;;;5.30;92.90;;;;;;4923452;29;20227;-78
2023/03/06 05:35:32;;;;;;;27.63;18.13;;;5.30;92.80;;;;;;4937616;29;20202;-79
2023/03/06 05:37:59;;;;;;;28.60;18.63;;;5.30;92.80;;;;;;4936107;29;20298;-79
2023/03/06 05:40:26;;;;;;;35.33;20.20;;;5.40;92.80;;;;;;4928244;29;20276;-78
2023/03/06 05:42:53;;;;;;;34.87;22.03;;;5.40;92.80;;;;;;4912709;29;20204;-77
2023/03/06 05:45:20;;;;;;;28.40;18.97;;;5.40;92.70;;;;;;4927548;29;20218;-79
2023/03/06 05:47:47;;;;;;;27.70;18.33;;;5.40;92.70;;;;;;4920837;29;20306;-79
2023/03/06 05:50:15;;;;;;;32.90;19.87;;;5.40;92.70;;;;;;4929795;29;20199;-79
2023/03/06 05:52:42;;;;;;;40.80;23.00;;;5.40;92.60;;;;;;4912771;29;20207;-79
2023/03/06 05:55:11;;;;;;;45.23;27.03;;;5.50;92.70;;;;;;4932354;29;20258;-79
2023/03/06 05:57:38;;;;;;;38.93;23.60;;;5.50;93.10;;;;;;4920743;29;20222;-79
2023/03/06 06:00:08;;;;;;;40.33;23.13;;;5.60;93.00;;;;;;4933290;29;20210;-80
2023/03/06 06:02:39;;;;;;;45.63;27.00;;;5.60;93.20;;;;;;4931916;29;20228;-79
2023/03/06 06:05:06;;;;;;;38.07;22.73;;;5.70;93.30;;;;;;4932808;29;20277;-79
2023/03/06 06:07:34;;;;;;;41.73;21.43;;;5.80;93.40;;;;;;4933836;29;20204;-79
2023/03/06 06:10:02;;;;;;;36.67;21.83;;;5.80;93.40;;;;;;4916466;29;20207;-78
2023/03/06 06:12:30;;;;;;;43.60;26.07;;;5.80;93.30;;;;;;4937082;29;20199;-79
2023/03/06 06:14:57;;;;;;;38.57;24.03;;;5.80;93.30;;;;;;4927351;29;20208;-79
2023/03/06 06:17:24;;;;;;;44.30;25.43;;;5.80;93.50;;;;;;4920881;29;20211;-80
2023/03/06 06:19:52;;;;;;;43.43;24.13;;;5.90;93.60;;;;;;4934685;29;20203;-79
2023/03/06 06:22:19;;;;;;;35.50;23.67;;;6.00;93.60;;;;;;4915842;29;20214;-79
2023/03/06 06:24:46;;;;;;;35.07;22.13;;;6.00;93.60;;;;;;4927509;29;20237;-79
2023/03/06 06:27:14;;;;;;;37.47;24.63;;;6.00;93.60;;;;;;4930453;29;20200;-79
2023/03/06 06:29:44;;;;;;;39.97;22.73;;;6.10;93.70;;;;;;4929365;29;20207;-79
2023/03/06 06:32:11;;;;;;;40.20;23.90;;;6.10;93.70;;;;;;4930335;29;21237;-79
2023/03/06 06:34:38;;;;;;;33.30;20.63;;;6.20;93.70;;;;;;4937353;29;20285;-78
2023/03/06 06:37:10;;;;;;;34.70;20.90;;;6.30;93.70;;;;;;4928106;29;20203;-79
2023/03/06 06:39:39;;;;;;;35.43;22.30;;;6.30;93.70;;;;;;4935331;29;20221;-78
2023/03/06 06:42:08;;;;;;;33.77;20.93;;;6.40;93.70;;;;;;4933825;29;20225;-79
2023/03/06 06:44:55;;;;;;;31.07;20.93;;;6.40;93.60;;;;;;4936952;29;20218;-79
2023/03/06 06:47:23;;;;;;;37.23;20.37;;;6.50;93.50;;;;;;4942058;29;20217;-79
2023/03/06 06:49:53;;;;;;;35.27;20.77;;;6.50;93.40;;;;;;4938797;29;20211;-80
2023/03/06 06:52:24;;;;;;;36.07;21.13;;;6.60;93.40;;;;;;4916276;29;20211;-79
2023/03/06 06:54:52;;;;;;;30.43;19.67;;;6.60;93.20;;;;;;4932154;29;20581;-79
2023/03/06 06:57:20;;;;;;;33.33;19.27;;;6.70;93.20;;;;;;4931896;29;20274;-78
2023/03/06 06:59:47;;;;;;;30.37;18.77;;;6.70;93.20;;;;;;4931724;29;20199;-78
2023/03/06 07:02:18;;;;;;;29.33;18.50;;;6.80;93.20;;;;;;4930368;29;20241;-79
2023/03/06 07:04:47;;;;;;;27.63;17.67;;;6.80;93.30;;;;;;4921725;29;20211;-79
2023/03/06 07:07:33;;;;;;;27.53;17.37;;;6.90;93.30;;;;;;4931212;29;20546;-80
2023/03/06 07:10:00;;;;;;;29.50;17.03;;;7.00;93.20;;;;;;4924874;29;20223;-79
2023/03/06 07:12:31;;;;;;;30.70;18.27;;;7.10;93.10;;;;;;4936322;29;20717;-79
2023/03/06 07:14:58;;;;;;;28.83;17.43;;;7.10;93.00;;;;;;4930885;29;20215;-80
2023/03/06 07:17:25;;;;;;;27.07;15.93;;;7.20;93.00;;;;;;4941616;29;20221;-79
2023/03/06 07:19:52;;;;;;;24.07;15.03;;;7.30;92.90;;;;;;4934266;29;20215;-79
2023/03/06 07:22:19;;;;;;;28.27;16.07;;;7.30;92.80;;;;;;4936629;29;20340;-80
2023/03/06 07:24:47;;;;;;;21.80;15.13;;;7.40;92.80;;;;;;4926908;29;20245;-79
2023/03/06 07:27:14;;;;;;;24.23;15.67;;;7.50;92.70;;;;;;4918786;29;20214;-79
2023/03/06 07:29:43;;;;;;;21.43;14.13;;;7.60;92.60;;;;;;4934370;29;20586;-79
2023/03/06 07:32:10;;;;;;;25.67;13.70;;;7.60;92.60;;;;;;4923892;29;20590;-79
2023/03/06 07:34:38;;;;;;;25.40;14.13;;;7.70;92.50;;;;;;4933817;29;20222;-79
2023/03/06 07:37:05;;;;;;;23.20;14.03;;;7.80;92.50;;;;;;4940353;29;20541;-80
2023/03/06 07:39:33;;;;;;;24.07;13.87;;;7.90;92.40;;;;;;4939209;29;20208;-80
2023/03/06 07:42:02;;;;;;;22.63;13.23;;;8.00;92.40;;;;;;4934640;29;20223;-80
2023/03/06 07:44:36;;;;;;;26.10;14.10;;;8.20;92.30;;;;;;4927838;29;20202;-80
2023/03/06 07:47:04;;;;;;;18.77;13.77;;;8.30;92.20;;;;;;4947778;29;20312;-79
2023/03/06 07:49:33;;;;;;;27.63;16.77;;;8.40;92.10;;;;;;4936561;29;20205;-79
2023/03/06 07:52:01;;;;;;;29.67;16.73;;;8.50;92.00;;;;;;4934784;29;20306;-79
2023/03/06 07:54:29;;;;;;;23.53;14.90;;;8.70;91.90;;;;;;4940849;29;20642;-79
2023/03/06 07:56:57;;;;;;;27.53;16.70;;;8.80;91.60;;;;;;4931079;29;20201;-78
2023/03/06 07:59:28;;;;;;;27.50;15.70;;;8.80;91.40;;;;;;4939880;29;20223;-79
2023/03/06 08:01:56;;;;;;;24.23;14.90;;;9.00;91.30;;;;;;4930328;29;20243;-79
2023/03/06 08:04:24;;;;;;;19.33;13.40;;;9.10;91.20;;;;;;4938186;29;20200;-79
2023/03/06 08:06:56;;;;;;;24.30;15.33;;;9.20;91.00;;;;;;4934962;29;20265;-79
2023/03/06 08:09:25;;;;;;;24.73;13.83;;;9.30;90.60;;;;;;4919210;29;20210;-80
2023/03/06 08:11:51;;;;;;;20.93;13.40;;;9.30;90.40;;;;;;4919349;29;20298;-80
2023/03/06 08:14:19;;;;;;;24.00;13.97;;;9.40;90.20;;;;;;4942109;29;20271;-79
2023/03/06 08:16:47;;;;;;;19.63;12.17;;;9.50;90.10;;;;;;4948540;29;20247;-79
2023/03/06 08:19:15;;;;;;;18.90;13.57;;;9.60;90.00;;;;;;4924387;29;20628;-79
2023/03/06 08:21:42;;;;;;;21.90;13.87;;;9.60;89.70;;;;;;4929914;29;20218;-79
2023/03/06 08:24:11;;;;;;;19.80;12.87;;;9.70;89.60;;;;;;4941947;29;20253;-79
2023/03/06 08:26:39;;;;;;;19.40;13.07;;;9.80;89.60;;;;;;4916758;29;20213;-79
2023/03/06 08:29:06;;;;;;;18.83;12.47;;;9.90;89.70;;;;;;4925627;29;20234;-79
2023/03/06 08:31:42;;;;;;;20.47;13.30;;;10.00;89.40;;;;;;4933890;29;20213;-78
2023/03/06 08:34:17;;;;;;;20.70;12.53;;;10.10;89.00;;;;;;4924401;29;20210;-78
2023/03/06 08:36:44;;;;;;;23.00;12.47;;;10.20;88.80;;;;;;4933723;29;20832;-78
2023/03/06 08:39:12;;;;;;;20.50;11.23;;;10.30;88.40;;;;;;4936435;29;20210;-79
2023/03/06 08:41:41;;;;;;;19.80;13.13;;;10.40;87.60;;;;;;4937776;29;20313;-79
2023/03/06 08:44:09;;;;;;;20.07;12.17;;;10.50;87.10;;;;;;4938888;29;20202;-79
2023/03/06 08:46:37;;;;;;;15.93;11.03;;;10.60;87.20;;;;;;4915874;29;20208;-79
2023/03/06 08:49:07;;;;;;;19.07;11.23;;;10.70;87.00;;;;;;4936075;29;20553;-79
2023/03/06 08:51:37;;;;;;;25.30;12.90;;;11.00;87.20;;;;;;4935696;29;20269;-79
2023/03/06 08:54:06;;;;;;;18.37;11.57;;;11.30;86.20;;;;;;4922095;29;20206;-78
2023/03/06 08:56:34;;;;;;;20.07;12.20;;;11.60;85.40;;;;;;4940474;29;20240;-78
2023/03/06 08:59:04;;;;;;;16.00;11.13;;;11.90;84.70;;;;;;4916778;29;20244;-78
2023/03/06 09:01:35;;;;;;;16.03;10.23;;;12.20;84.00;;;;;;4935020;29;20235;-79
2023/03/06 09:04:06;;;;;;;14.70;10.67;;;12.50;83.10;;;;;;4938248;29;20222;-78
2023/03/06 09:06:36;;;;;;;14.60;9.67;;;12.80;82.40;;;;;;4932989;29;20219;-79
2023/03/06 09:09:05;;;;;;;17.53;9.67;;;13.10;81.00;;;;;;4923723;29;20202;-77
2023/03/06 09:11:32;;;;;;;12.50;8.90;;;13.30;79.60;;;;;;4936786;29;20325;-78
2023/03/06 09:14:00;;;;;;;17.57;9.80;;;13.60;78.50;;;;;;4939382;29;20209;-78
2023/03/06 09:16:27;;;;;;;18.93;11.63;;;13.80;77.70;;;;;;4938431;29;20256;-79
2023/03/06 09:18:56;;;;;;;16.70;9.73;;;14.00;77.10;;;;;;4934925;29;20653;-78
2023/03/06 09:21:25;;;;;;;13.23;9.87;;;14.20;76.50;;;;;;4945499;28;20233;-78
2023/03/06 09:23:56;;;;;;;14.57;9.70;;;14.30;75.90;;;;;;4913088;29;20274;-78
2023/03/06 09:26:23;;;;;;;21.63;10.93;;;14.50;75.10;;;;;;4930708;29;20294;-79
2023/03/06 09:29:07;;;;;;;14.30;9.40;;;14.60;74.00;;;;;;4923327;29;20203;-78
2023/03/06 09:31:35;;;;;;;14.37;8.20;;;14.80;72.70;;;;;;4929621;29;20222;-78
2023/03/06 09:34:02;;;;;;;16.87;8.67;;;14.90;72.00;;;;;;4931478;29;20231;-78
2023/03/06 09:36:33;;;;;;;12.43;8.23;;;15.00;71.20;;;;;;4933651;29;20298;-78
2023/03/06 09:39:19;;;;;;;18.03;8.80;;;15.20;70.30;;;;;;4935307;29;20282;-79
2023/03/06 09:41:48;;;;;;;9.27;6.30;;;15.30;68.70;;;;;;4921937;29;20224;-78
2023/03/06 09:44:20;;;;;;;10.20;6.77;;;15.40;67.00;;;;;;4916084;29;20280;-78
2023/03/06 09:47:24;;;;;;;7.27;4.73;;;15.50;66.10;;;;;;4939594;29;20217;-77
2023/03/06 09:49:57;;;;;;;10.40;5.63;;;15.70;64.20;;;;;;4924690;29;20283;-79
2023/03/06 09:52:45;;;;;;;14.20;6.37;;;15.90;64.30;;;;;;4937144;29;20306;-77
2023/03/06 09:55:23;;;;;;;12.50;7.40;;;16.00;64.10;;;;;;4930473;29;20290;-78
2023/03/06 09:58:24;;;;;;;11.40;6.80;;;16.20;62.50;;;;;;4927060;29;20321;-79
2023/03/06 10:01:26;;;;;;;12.17;6.33;;;16.30;60.50;;;;;;4883230;29;20290;-79
2023/03/06 10:04:05;;;;;;;11.20;6.10;;;16.20;60.20;;;;;;4908217;29;20282;-77
2023/03/06 10:06:52;;;;;;;11.87;6.10;;;16.20;61.40;;;;;;4914032;29;20220;-78
2023/03/06 10:09:24;;;;;;;9.87;6.90;;;16.30;60.70;;;;;;4917939;29;20210;-78
2023/03/06 10:12:05;;;;;;;11.67;5.73;;;16.40;59.20;;;;;;4932314;29;20222;-79
2023/03/06 10:14:42;;;;;;;8.77;5.00;;;16.60;57.60;;;;;;4930455;29;20639;-78
2023/03/06 10:17:17;;;;;;;11.83;6.00;;;16.80;57.60;;;;;;4924234;29;20212;-79
2023/03/06 10:19:50;;;;;;;10.23;5.37;;;17.00;57.40;;;;;;4926660;29;20716;-79
2023/03/06 10:22:32;;;;;;;7.67;5.67;;;17.10;55.80;;;;;;4919639;29;20752;-79
2023/03/06 10:25:23;;;;;;;11.00;6.17;;;17.10;55.40;;;;;;4915111;29;20252;-78
2023/03/06 10:28:04;;;;;;;16.97;5.40;;;17.10;55.00;;;;;;4918014;29;20206;-78
2023/03/06 10:30:52;;;;;;;12.13;6.20;;;17.00;54.50;;;;;;4934145;29;20266;-78
2023/03/06 10:33:43;;;;;;;12.73;5.80;;;16.70;55.60;;;;;;4920544;29;20270;-77
2023/03/06 10:36:14;;;;;;;10.00;5.77;;;16.60;56.20;;;;;;4911012;29;20223;-78
2023/03/06 10:38:43;;;;;;;8.87;5.53;;;16.50;56.80;;;;;;4934439;29;20664;-78
2023/03/06 10:41:10;;;;;;;12.17;5.40;;;16.40;57.80;;;;;;4915009;29;20211;-78
2023/03/06 10:44:04;;;;;;;9.70;5.70;;;16.20;55.90;;;;;;4916601;29;20247;-78
2023/03/06 10:46:35;;;;;;;12.77;5.23;;;16.10;55.80;;;;;;4928387;29;20308;-79
2023/03/06 10:49:22;;;;;;;11.13;5.30;;;15.90;56.50;;;;;;4927085;29;20541;-78
2023/03/06 10:52:05;;;;;;;12.13;5.53;;;15.80;56.90;;;;;;4915156;29;20240;-78
2023/03/06 10:54:36;;;;;;;9.20;4.57;;;15.80;57.70;;;;;;4923270;29;20663;-77
2023/03/06 10:57:25;;;;;;;11.70;5.23;;;15.80;57.60;;;;;;4915816;29;20228;-77
2023/03/06 10:59:58;;;;;;;11.23;4.97;;;15.80;57.00;;;;;;4924229;29;20235;-77
2023/03/06 11:02:30;;;;;;;9.73;4.77;;;15.80;56.90;;;;;;4926547;29;20221;-78
2023/03/06 11:04:59;;;;;;;13.67;4.97;;;15.80;56.80;;;;;;4911765;29;20585;-78
2023/03/06 11:07:30;;;;;;;8.57;5.13;;;15.80;57.60;;;;;;4912192;29;20207;-76
2023/03/06 11:09:57;;;;;;;9.17;4.77;;;15.80;58.00;;;;;;4913380;29;20193;-77
2023/03/06 11:12:36;;;;;;;6.63;4.87;;;15.90;58.10;;;;;;4931789;29;20212;-77
2023/03/06 11:15:23;;;;;;;8.07;3.83;;;16.00;57.90;;;;;;4924260;29;20222;-79
2023/03/06 11:17:59;;;;;;;8.67;4.20;;;16.40;57.40;;;;;;4912298;29;20245;-77
2023/03/06 11:20:32;;;;;;;8.00;4.57;;;16.70;56.60;;;;;;4932835;29;20191;-78
2023/03/06 11:23:35;;;;;;;6.93;4.00;;;17.00;54.50;;;;;;4924502;29;20260;-77
2023/03/06 11:26:28;;;;;;;7.33;4.33;;;17.30;53.60;;;;;;4914006;29;20205;-78
2023/03/06 11:29:16;;;;;;;10.37;4.40;;;17.50;52.60;;;;;;4912379;29;20204;-77
2023/03/06 11:32:22;;;;;;;7.13;4.00;;;17.70;52.40;;;;;;4918600;29;20278;-78
2023/03/06 11:35:08;;;;;;;6.33;4.17;;;17.90;52.10;;;;;;4907427;29;20684;-80
2023/03/06 11:37:52;;;;;;;6.70;4.03;;;18.10;50.30;;;;;;4927376;29;20239;-78
2023/03/06 11:40:48;;;;;;;6.80;4.33;;;18.10;49.80;;;;;;4935952;29;20207;-77
2023/03/06 11:43:25;;;;;;;11.37;4.43;;;18.00;50.20;;;;;;4941885;29;20628;-77
2023/03/06 11:46:02;;;;;;;9.33;4.17;;;18.00;50.70;;;;;;4931610;29;20644;-77
2023/03/06 11:48:51;;;;;;;8.67;4.40;;;18.00;51.10;;;;;;4942321;29;20205;-77
2023/03/06 11:51:32;;;;;;;10.53;3.63;;;18.10;51.40;;;;;;4933933;29;20293;-78
2023/03/06 11:54:01;;;;;;;10.27;3.83;;;18.10;51.40;;;;;;4929315;29;20202;-78
2023/03/06 11:56:38;;;;;;;6.20;3.63;;;18.20;51.30;;;;;;4916297;29;20210;-78
2023/03/06 11:59:23;;;;;;;7.13;4.20;;;18.20;50.20;;;;;;4916875;29;20207;-78
2023/03/06 12:02:14;;;;;;;7.67;4.23;;;18.10;50.70;;;;;;4928976;29;20561;-77
2023/03/06 12:05:07;;;;;;;6.07;3.53;;;18.00;50.80;;;;;;4918601;29;20206;-78
2023/03/06 12:07:48;;;;;;;6.37;3.80;;;17.80;50.10;;;;;;4935516;29;20206;-77
2023/03/06 12:10:15;;;;;;;4.83;3.60;;;17.60;51.10;;;;;;4917978;29;20217;-77
2023/03/06 12:13:04;;;;;;;6.73;3.77;;;17.40;50.70;;;;;;4937973;29;20217;-78
2023/03/06 12:15:49;;;;;;;5.90;3.53;;;17.30;50.90;;;;;;4931234;29;20211;-77
2023/03/06 12:18:23;;;;;;;7.37;4.73;;;17.20;52.00;;;;;;4932349;29;20207;-82
2023/03/06 12:21:18;;;;;;;8.70;4.00;;;17.10;53.30;;;;;;4941680;29;20539;-77
2023/03/06 12:23:56;;;;;;;6.00;3.27;;;17.00;53.20;;;;;;4929174;29;20628;-77
2023/03/06 12:26:50;;;;;;;7.73;3.17;;;17.00;54.10;;;;;;4932683;29;20237;-77
2023/03/06 12:29:24;;;;;;;6.13;3.40;;;17.20;53.60;;;;;;4929439;29;20302;-77
2023/03/06 12:32:13;;;;;;;10.60;3.17;;;17.30;53.40;;;;;;4942089;29;20205;-77
2023/03/06 12:35:00;;;;;;;5.40;3.03;;;17.50;53.00;;;;;;4916565;29;20739;-78
2023/03/06 12:37:37;;;;;;;3.63;2.80;;;17.70;52.80;;;;;;4929193;29;20236;-77
2023/03/06 12:40:34;;;;;;;4.60;3.43;;;17.80;52.80;;;;;;4934422;29;20224;-77
2023/03/06 12:43:03;;;;;;;4.67;3.17;;;17.90;53.30;;;;;;4914144;29;20237;-77
2023/03/06 12:45:33;;;;;;;7.30;3.67;;;18.10;52.80;;;;;;4936837;29;20237;-78
2023/03/06 12:48:00;;;;;;;5.27;3.03;;;18.20;52.60;;;;;;4932817;29;20297;-78
2023/03/06 12:50:35;;;;;;;5.00;3.00;;;18.40;53.00;;;;;;4913228;29;20685;-79
2023/03/06 12:53:30;;;;;;;9.07;3.63;;;18.60;53.00;;;;;;4919575;29;20207;-79
2023/03/06 12:56:03;;;;;;;6.17;2.80;;;18.90;50.70;;;;;;4926181;29;20223;-78
2023/03/06 12:58:35;;;;;;;6.57;3.03;;;18.90;50.50;;;;;;4918755;29;20217;-78
2023/03/06 13:01:12;;;;;;;3.23;2.57;;;18.90;50.60;;;;;;4930906;29;20226;-79
2023/03/06 13:04:01;;;;;;;7.80;3.03;;;18.80;50.80;;;;;;4914562;29;20295;-78